sensor_id;sensor_type;location;lat;lon;timestamp;P1;durP1;ratioP1;P2;durP2;ratioP2
44358;SDS011;30077;52.474;13.326;2022-08-25T00:02:09;14.55;;;8.70;;
44358;SDS011;30077;52.474;13.326;2022-08-25T00:07:10;10.98;;;8.43;;
44358;SDS011;30077;52.474;13.326;2022-08-25T00:12:11;13.93;;;8.97;;
44358;SDS011;30077;52.474;13.326;2022-08-25T00:17:11;11.40;;;8.37;;
44358;SDS011;30077;52.474;13.326;2022-08-25T00:22:11;11.10;;;9.10;;
44358;SDS011;30077;52.474;13.326;2022-08-25T00:27:12;15.32;;;8.55;;
44358;SDS011;30077;52.474;13.326;2022-08-25T00:32:12;12.45;;;8.35;;
44358;SDS011;30077;52.474;13.326;2022-08-25T00:37:12;16.17;;;10.20;;
44358;SDS011;30077;52.474;13.326;2022-08-25T00:42:15;21.67;;;9.75;;
44358;SDS011;30077;52.474;13.326;2022-08-25T00:47:15;12.93;;;9.80;;
44358;SDS011;30077;52.474;13.326;2022-08-25T00:52:20;15.50;;;10.93;;
44358;SDS011;30077;52.474;13.326;2022-08-25T00:57:29;13.63;;;10.52;;
44358;SDS011;30077;52.474;13.326;2022-08-25T01:02:32;16.60;;;11.02;;
44358;SDS011;30077;52.474;13.326;2022-08-25T01:07:32;17.70;;;10.68;;
44358;SDS011;30077;52.474;13.326;2022-08-25T01:12:33;16.90;;;11.77;;
44358;SDS011;30077;52.474;13.326;2022-08-25T01:17:44;15.90;;;10.93;;
44358;SDS011;30077;52.474;13.326;2022-08-25T01:22:53;19.17;;;11.73;;
44358;SDS011;30077;52.474;13.326;2022-08-25T01:27:54;15.65;;;11.02;;
44358;SDS011;30077;52.474;13.326;2022-08-25T01:32:54;21.48;;;11.57;;
44358;SDS011;30077;52.474;13.326;2022-08-25T01:37:55;18.58;;;12.15;;
44358;SDS011;30077;52.474;13.326;2022-08-25T01:43:11;14.97;;;10.97;;
44358;SDS011;30077;52.474;13.326;2022-08-25T01:48:24;18.00;;;12.68;;
44358;SDS011;30077;52.474;13.326;2022-08-25T01:53:26;19.48;;;11.65;;
44358;SDS011;30077;52.474;13.326;2022-08-25T01:58:32;18.05;;;13.05;;
44358;SDS011;30077;52.474;13.326;2022-08-25T02:03:39;20.92;;;12.88;;
44358;SDS011;30077;52.474;13.326;2022-08-25T02:08:41;21.83;;;12.90;;
44358;SDS011;30077;52.474;13.326;2022-08-25T02:13:42;20.08;;;13.63;;
44358;SDS011;30077;52.474;13.326;2022-08-25T02:18:42;22.33;;;14.80;;
44358;SDS011;30077;52.474;13.326;2022-08-25T02:23:44;23.10;;;15.03;;
44358;SDS011;30077;52.474;13.326;2022-08-25T02:28:45;19.35;;;13.07;;
44358;SDS011;30077;52.474;13.326;2022-08-25T02:33:46;19.17;;;13.63;;
44358;SDS011;30077;52.474;13.326;2022-08-25T02:38:47;19.02;;;13.07;;
44358;SDS011;30077;52.474;13.326;2022-08-25T02:43:48;23.15;;;13.98;;
44358;SDS011;30077;52.474;13.326;2022-08-25T02:48:49;17.52;;;13.93;;
44358;SDS011;30077;52.474;13.326;2022-08-25T02:53:51;22.55;;;13.95;;
44358;SDS011;30077;52.474;13.326;2022-08-25T02:58:52;18.35;;;14.32;;
44358;SDS011;30077;52.474;13.326;2022-08-25T03:03:52;19.67;;;13.03;;
44358;SDS011;30077;52.474;13.326;2022-08-25T03:08:52;24.40;;;13.68;;
44358;SDS011;30077;52.474;13.326;2022-08-25T03:13:53;25.92;;;15.43;;
44358;SDS011;30077;52.474;13.326;2022-08-25T03:18:55;19.75;;;14.30;;
44358;SDS011;30077;52.474;13.326;2022-08-25T03:23:56;21.38;;;14.18;;
44358;SDS011;30077;52.474;13.326;2022-08-25T03:28:57;21.70;;;14.98;;
44358;SDS011;30077;52.474;13.326;2022-08-25T03:33:58;27.23;;;14.97;;
44358;SDS011;30077;52.474;13.326;2022-08-25T03:38:59;22.85;;;15.10;;
44358;SDS011;30077;52.474;13.326;2022-08-25T03:44:01;21.67;;;14.80;;
44358;SDS011;30077;52.474;13.326;2022-08-25T03:49:04;22.02;;;14.15;;
44358;SDS011;30077;52.474;13.326;2022-08-25T03:54:06;22.10;;;15.38;;
44358;SDS011;30077;52.474;13.326;2022-08-25T03:59:08;19.23;;;14.97;;
44358;SDS011;30077;52.474;13.326;2022-08-25T04:04:09;24.15;;;16.65;;
44358;SDS011;30077;52.474;13.326;2022-08-25T04:09:11;22.08;;;15.82;;
44358;SDS011;30077;52.474;13.326;2022-08-25T04:14:12;26.13;;;15.35;;
44358;SDS011;30077;52.474;13.326;2022-08-25T04:19:13;28.00;;;16.77;;
44358;SDS011;30077;52.474;13.326;2022-08-25T04:24:14;23.13;;;16.38;;
44358;SDS011;30077;52.474;13.326;2022-08-25T04:29:15;19.38;;;16.20;;
44358;SDS011;30077;52.474;13.326;2022-08-25T04:34:18;27.25;;;16.83;;
44358;SDS011;30077;52.474;13.326;2022-08-25T04:39:19;26.85;;;16.80;;
44358;SDS011;30077;52.474;13.326;2022-08-25T04:44:20;24.77;;;16.50;;
44358;SDS011;30077;52.474;13.326;2022-08-25T04:49:20;28.70;;;18.07;;
44358;SDS011;30077;52.474;13.326;2022-08-25T04:54:20;23.80;;;17.45;;
44358;SDS011;30077;52.474;13.326;2022-08-25T04:59:21;29.15;;;19.40;;
44358;SDS011;30077;52.474;13.326;2022-08-25T05:04:21;29.42;;;19.90;;
44358;SDS011;30077;52.474;13.326;2022-08-25T05:09:22;30.83;;;20.70;;
44358;SDS011;30077;52.474;13.326;2022-08-25T05:14:22;30.90;;;20.87;;
44358;SDS011;30077;52.474;13.326;2022-08-25T05:19:23;26.33;;;20.00;;
44358;SDS011;30077;52.474;13.326;2022-08-25T05:24:25;35.20;;;21.27;;
44358;SDS011;30077;52.474;13.326;2022-08-25T05:29:26;32.03;;;21.40;;
44358;SDS011;30077;52.474;13.326;2022-08-25T05:34:27;31.30;;;20.48;;
44358;SDS011;30077;52.474;13.326;2022-08-25T05:39:27;35.42;;;22.30;;
44358;SDS011;30077;52.474;13.326;2022-08-25T05:44:31;35.75;;;21.73;;
44358;SDS011;30077;52.474;13.326;2022-08-25T05:49:31;31.38;;;21.13;;
44358;SDS011;30077;52.474;13.326;2022-08-25T05:54:31;27.95;;;20.75;;
44358;SDS011;30077;52.474;13.326;2022-08-25T05:59:31;27.70;;;21.10;;
44358;SDS011;30077;52.474;13.326;2022-08-25T06:04:32;28.70;;;20.83;;
44358;SDS011;30077;52.474;13.326;2022-08-25T06:09:32;33.65;;;22.77;;
44358;SDS011;30077;52.474;13.326;2022-08-25T06:14:32;31.73;;;23.45;;
44358;SDS011;30077;52.474;13.326;2022-08-25T06:19:33;37.70;;;24.83;;
44358;SDS011;30077;52.474;13.326;2022-08-25T06:24:34;36.57;;;26.03;;
44358;SDS011;30077;52.474;13.326;2022-08-25T06:29:34;43.65;;;26.48;;
44358;SDS011;30077;52.474;13.326;2022-08-25T06:34:35;40.27;;;24.73;;
44358;SDS011;30077;52.474;13.326;2022-08-25T06:39:35;39.10;;;26.27;;
44358;SDS011;30077;52.474;13.326;2022-08-25T06:44:35;42.42;;;24.50;;
44358;SDS011;30077;52.474;13.326;2022-08-25T06:49:35;44.05;;;29.45;;
44358;SDS011;30077;52.474;13.326;2022-08-25T06:54:36;50.53;;;30.90;;
44358;SDS011;30077;52.474;13.326;2022-08-25T06:59:37;50.95;;;30.40;;
44358;SDS011;30077;52.474;13.326;2022-08-25T07:04:37;49.53;;;30.38;;
44358;SDS011;30077;52.474;13.326;2022-08-25T07:09:37;42.55;;;28.55;;
44358;SDS011;30077;52.474;13.326;2022-08-25T07:14:37;35.03;;;26.30;;
44358;SDS011;30077;52.474;13.326;2022-08-25T07:19:38;32.05;;;24.98;;
44358;SDS011;30077;52.474;13.326;2022-08-25T07:24:38;37.77;;;27.13;;
44358;SDS011;30077;52.474;13.326;2022-08-25T07:29:39;37.28;;;25.30;;
44358;SDS011;30077;52.474;13.326;2022-08-25T07:34:40;39.75;;;26.42;;
44358;SDS011;30077;52.474;13.326;2022-08-25T07:40:01;38.85;;;24.45;;
44358;SDS011;30077;52.474;13.326;2022-08-25T07:45:04;37.58;;;25.42;;
44358;SDS011;30077;52.474;13.326;2022-08-25T07:50:06;38.35;;;23.35;;
44358;SDS011;30077;52.474;13.326;2022-08-25T08:00:08;27.98;;;20.83;;
44358;SDS011;30077;52.474;13.326;2022-08-25T08:05:11;32.67;;;22.07;;
44358;SDS011;30077;52.474;13.326;2022-08-25T08:10:13;29.60;;;20.42;;
44358;SDS011;30077;52.474;13.326;2022-08-25T08:15:13;31.90;;;20.17;;
44358;SDS011;30077;52.474;13.326;2022-08-25T08:20:14;30.88;;;18.67;;
44358;SDS011;30077;52.474;13.326;2022-08-25T08:25:15;33.35;;;19.98;;
44358;SDS011;30077;52.474;13.326;2022-08-25T08:30:15;30.90;;;21.30;;
44358;SDS011;30077;52.474;13.326;2022-08-25T08:35:16;31.00;;;19.53;;
44358;SDS011;30077;52.474;13.326;2022-08-25T08:40:18;25.47;;;19.17;;
44358;SDS011;30077;52.474;13.326;2022-08-25T08:50:36;36.05;;;23.10;;
44358;SDS011;30077;52.474;13.326;2022-08-25T08:55:44;36.50;;;21.80;;
44358;SDS011;30077;52.474;13.326;2022-08-25T09:00:48;32.22;;;21.75;;
44358;SDS011;30077;52.474;13.326;2022-08-25T09:05:54;32.97;;;23.05;;
44358;SDS011;30077;52.474;13.326;2022-08-25T09:11:06;29.30;;;21.63;;
44358;SDS011;30077;52.474;13.326;2022-08-25T09:16:49;35.35;;;20.77;;
44358;SDS011;30077;52.474;13.326;2022-08-25T09:22:21;23.42;;;15.55;;
44358;SDS011;30077;52.474;13.326;2022-08-25T09:27:43;31.33;;;18.55;;
44358;SDS011;30077;52.474;13.326;2022-08-25T09:32:49;30.35;;;18.77;;
44358;SDS011;30077;52.474;13.326;2022-08-25T09:43:18;25.60;;;16.98;;
44358;SDS011;30077;52.474;13.326;2022-08-25T09:48:42;27.38;;;15.77;;
44358;SDS011;30077;52.474;13.326;2022-08-25T09:53:57;23.13;;;15.95;;
44358;SDS011;30077;52.474;13.326;2022-08-25T09:59:20;24.35;;;15.82;;
44358;SDS011;30077;52.474;13.326;2022-08-25T10:04:30;29.53;;;16.57;;
44358;SDS011;30077;52.474;13.326;2022-08-25T10:09:39;22.17;;;14.38;;
44358;SDS011;30077;52.474;13.326;2022-08-25T10:14:41;25.67;;;13.57;;
44358;SDS011;30077;52.474;13.326;2022-08-25T10:19:42;24.17;;;15.47;;
44358;SDS011;30077;52.474;13.326;2022-08-25T10:24:42;24.60;;;16.38;;
44358;SDS011;30077;52.474;13.326;2022-08-25T10:35:10;21.58;;;15.60;;
44358;SDS011;30077;52.474;13.326;2022-08-25T10:41:03;21.33;;;13.90;;
44358;SDS011;30077;52.474;13.326;2022-08-25T10:45:37;22.80;;;13.27;;
44358;SDS011;30077;52.474;13.326;2022-08-25T10:50:44;16.73;;;12.38;;
44358;SDS011;30077;52.474;13.326;2022-08-25T11:01:05;19.35;;;12.50;;
44358;SDS011;30077;52.474;13.326;2022-08-25T11:07:02;17.13;;;12.35;;
44358;SDS011;30077;52.474;13.326;2022-08-25T11:11:53;23.80;;;11.25;;
44358;SDS011;30077;52.474;13.326;2022-08-25T11:17:03;16.45;;;10.75;;
44358;SDS011;30077;52.474;13.326;2022-08-25T11:22:11;20.63;;;9.52;;
44358;SDS011;30077;52.474;13.326;2022-08-25T11:27:23;17.80;;;10.10;;
44358;SDS011;30077;52.474;13.326;2022-08-25T11:32:36;16.88;;;9.65;;
44358;SDS011;30077;52.474;13.326;2022-08-25T11:38:03;16.33;;;10.35;;
44358;SDS011;30077;52.474;13.326;2022-08-25T11:43:21;18.27;;;9.70;;
44358;SDS011;30077;52.474;13.326;2022-08-25T11:48:36;18.13;;;9.50;;
44358;SDS011;30077;52.474;13.326;2022-08-25T11:53:41;20.25;;;10.68;;
44358;SDS011;30077;52.474;13.326;2022-08-25T11:58:44;23.52;;;9.23;;
44358;SDS011;30077;52.474;13.326;2022-08-25T12:03:49;14.05;;;9.77;;
44358;SDS011;30077;52.474;13.326;2022-08-25T12:08:53;19.52;;;10.50;;
44358;SDS011;30077;52.474;13.326;2022-08-25T12:29:45;26.55;;;11.35;;
44358;SDS011;30077;52.474;13.326;2022-08-25T12:40:26;21.50;;;10.25;;
44358;SDS011;30077;52.474;13.326;2022-08-25T12:45:54;16.90;;;10.43;;
44358;SDS011;30077;52.474;13.326;2022-08-25T12:51:38;18.92;;;10.80;;
44358;SDS011;30077;52.474;13.326;2022-08-25T12:56:52;19.42;;;10.48;;
44358;SDS011;30077;52.474;13.326;2022-08-25T13:02:16;16.77;;;9.60;;
44358;SDS011;30077;52.474;13.326;2022-08-25T13:07:45;18.40;;;9.90;;
44358;SDS011;30077;52.474;13.326;2022-08-25T13:18:17;16.95;;;9.32;;
44358;SDS011;30077;52.474;13.326;2022-08-25T13:23:25;16.35;;;10.00;;
44358;SDS011;30077;52.474;13.326;2022-08-25T13:28:31;20.00;;;9.57;;
44358;SDS011;30077;52.474;13.326;2022-08-25T13:33:35;19.92;;;9.27;;
44358;SDS011;30077;52.474;13.326;2022-08-25T13:38:36;22.23;;;9.52;;
44358;SDS011;30077;52.474;13.326;2022-08-25T13:43:36;15.45;;;9.70;;
44358;SDS011;30077;52.474;13.326;2022-08-25T13:48:40;22.55;;;8.82;;
44358;SDS011;30077;52.474;13.326;2022-08-25T13:53:41;19.58;;;9.77;;
44358;SDS011;30077;52.474;13.326;2022-08-25T13:58:47;17.23;;;8.85;;
44358;SDS011;30077;52.474;13.326;2022-08-25T14:03:48;22.63;;;9.18;;
44358;SDS011;30077;52.474;13.326;2022-08-25T14:14:03;17.70;;;9.00;;
44358;SDS011;30077;52.474;13.326;2022-08-25T14:19:11;21.30;;;8.90;;
44358;SDS011;30077;52.474;13.326;2022-08-25T14:24:19;17.55;;;8.85;;
44358;SDS011;30077;52.474;13.326;2022-08-25T14:29:21;20.55;;;9.45;;
44358;SDS011;30077;52.474;13.326;2022-08-25T14:34:24;22.83;;;9.07;;
44358;SDS011;30077;52.474;13.326;2022-08-25T14:39:26;12.70;;;7.25;;
44358;SDS011;30077;52.474;13.326;2022-08-25T14:44:27;16.75;;;8.48;;
44358;SDS011;30077;52.474;13.326;2022-08-25T14:49:28;14.32;;;7.75;;
44358;SDS011;30077;52.474;13.326;2022-08-25T14:54:32;15.00;;;7.97;;
44358;SDS011;30077;52.474;13.326;2022-08-25T14:59:33;24.47;;;9.10;;
44358;SDS011;30077;52.474;13.326;2022-08-25T15:04:33;15.35;;;8.70;;
44358;SDS011;30077;52.474;13.326;2022-08-25T15:14:35;20.33;;;9.15;;
44358;SDS011;30077;52.474;13.326;2022-08-25T15:19:35;21.05;;;8.70;;
44358;SDS011;30077;52.474;13.326;2022-08-25T15:24:36;19.40;;;8.50;;
44358;SDS011;30077;52.474;13.326;2022-08-25T15:29:36;18.48;;;8.32;;
44358;SDS011;30077;52.474;13.326;2022-08-25T15:34:36;23.10;;;9.27;;
44358;SDS011;30077;52.474;13.326;2022-08-25T15:39:38;19.10;;;8.20;;
44358;SDS011;30077;52.474;13.326;2022-08-25T15:44:39;23.70;;;7.97;;
44358;SDS011;30077;52.474;13.326;2022-08-25T15:49:40;14.25;;;8.43;;
44358;SDS011;30077;52.474;13.326;2022-08-25T15:54:42;15.02;;;8.00;;
44358;SDS011;30077;52.474;13.326;2022-08-25T15:59:42;15.82;;;7.82;;
44358;SDS011;30077;52.474;13.326;2022-08-25T16:04:42;24.57;;;8.77;;
44358;SDS011;30077;52.474;13.326;2022-08-25T16:09:43;15.87;;;7.90;;
44358;SDS011;30077;52.474;13.326;2022-08-25T16:14:43;18.80;;;8.25;;
44358;SDS011;30077;52.474;13.326;2022-08-25T16:19:45;20.92;;;7.97;;
44358;SDS011;30077;52.474;13.326;2022-08-25T16:24:45;22.20;;;8.63;;
44358;SDS011;30077;52.474;13.326;2022-08-25T16:29:46;23.35;;;8.65;;
44358;SDS011;30077;52.474;13.326;2022-08-25T16:34:46;31.85;;;9.00;;
44358;SDS011;30077;52.474;13.326;2022-08-25T16:39:50;26.58;;;8.10;;
44358;SDS011;30077;52.474;13.326;2022-08-25T16:44:52;26.70;;;9.07;;
44358;SDS011;30077;52.474;13.326;2022-08-25T16:49:53;28.20;;;12.02;;
44358;SDS011;30077;52.474;13.326;2022-08-25T16:54:53;27.23;;;8.88;;
44358;SDS011;30077;52.474;13.326;2022-08-25T17:00:17;27.25;;;8.65;;
44358;SDS011;30077;52.474;13.326;2022-08-25T17:05:20;25.20;;;8.40;;
44358;SDS011;30077;52.474;13.326;2022-08-25T17:10:21;22.65;;;7.95;;
44358;SDS011;30077;52.474;13.326;2022-08-25T17:15:21;36.47;;;9.20;;
44358;SDS011;30077;52.474;13.326;2022-08-25T17:20:22;28.23;;;8.23;;
44358;SDS011;30077;52.474;13.326;2022-08-25T17:25:23;27.67;;;8.53;;
44358;SDS011;30077;52.474;13.326;2022-08-25T17:30:23;36.35;;;10.05;;
44358;SDS011;30077;52.474;13.326;2022-08-25T17:35:23;28.60;;;9.32;;
44358;SDS011;30077;52.474;13.326;2022-08-25T17:40:24;22.00;;;8.67;;
44358;SDS011;30077;52.474;13.326;2022-08-25T17:45:24;26.42;;;8.68;;
44358;SDS011;30077;52.474;13.326;2022-08-25T17:50:25;26.50;;;9.27;;
44358;SDS011;30077;52.474;13.326;2022-08-25T17:55:26;28.02;;;10.13;;
44358;SDS011;30077;52.474;13.326;2022-08-25T18:00:26;26.40;;;11.00;;
44358;SDS011;30077;52.474;13.326;2022-08-25T18:05:26;20.63;;;9.50;;
44358;SDS011;30077;52.474;13.326;2022-08-25T18:10:27;25.80;;;11.07;;
44358;SDS011;30077;52.474;13.326;2022-08-25T18:15:28;19.17;;;9.88;;
44358;SDS011;30077;52.474;13.326;2022-08-25T18:20:29;23.40;;;10.33;;
44358;SDS011;30077;52.474;13.326;2022-08-25T18:25:29;22.67;;;10.40;;
44358;SDS011;30077;52.474;13.326;2022-08-25T18:30:30;25.17;;;12.07;;
44358;SDS011;30077;52.474;13.326;2022-08-25T18:35:30;21.73;;;10.93;;
44358;SDS011;30077;52.474;13.326;2022-08-25T18:40:30;18.30;;;10.02;;
44358;SDS011;30077;52.474;13.326;2022-08-25T18:45:34;19.63;;;10.48;;
44358;SDS011;30077;52.474;13.326;2022-08-25T18:50:43;25.75;;;10.98;;
44358;SDS011;30077;52.474;13.326;2022-08-25T18:55:45;30.17;;;15.30;;
44358;SDS011;30077;52.474;13.326;2022-08-25T19:00:49;33.50;;;16.83;;
44358;SDS011;30077;52.474;13.326;2022-08-25T19:05:50;27.90;;;14.60;;
44358;SDS011;30077;52.474;13.326;2022-08-25T19:10:51;22.50;;;12.02;;
44358;SDS011;30077;52.474;13.326;2022-08-25T19:15:53;23.35;;;11.70;;
44358;SDS011;30077;52.474;13.326;2022-08-25T19:20:53;30.23;;;13.55;;
44358;SDS011;30077;52.474;13.326;2022-08-25T19:25:53;24.40;;;14.10;;
44358;SDS011;30077;52.474;13.326;2022-08-25T19:30:53;62.40;;;35.25;;
44358;SDS011;30077;52.474;13.326;2022-08-25T19:35:54;26.58;;;14.60;;
44358;SDS011;30077;52.474;13.326;2022-08-25T19:40:55;26.52;;;13.85;;
44358;SDS011;30077;52.474;13.326;2022-08-25T19:45:55;27.98;;;12.68;;
44358;SDS011;30077;52.474;13.326;2022-08-25T19:50:55;18.80;;;12.90;;
44358;SDS011;30077;52.474;13.326;2022-08-25T19:55:56;21.95;;;12.70;;
44358;SDS011;30077;52.474;13.326;2022-08-25T20:05:59;23.77;;;14.57;;
44358;SDS011;30077;52.474;13.326;2022-08-25T20:10:59;25.43;;;14.13;;
44358;SDS011;30077;52.474;13.326;2022-08-25T20:15:59;20.40;;;12.93;;
44358;SDS011;30077;52.474;13.326;2022-08-25T20:20:59;23.35;;;15.05;;
44358;SDS011;30077;52.474;13.326;2022-08-25T20:26:00;22.20;;;12.95;;
44358;SDS011;30077;52.474;13.326;2022-08-25T20:31:00;23.77;;;14.35;;
44358;SDS011;30077;52.474;13.326;2022-08-25T20:36:00;22.00;;;13.48;;
44358;SDS011;30077;52.474;13.326;2022-08-25T20:41:03;25.55;;;13.93;;
44358;SDS011;30077;52.474;13.326;2022-08-25T20:46:08;21.88;;;14.57;;
44358;SDS011;30077;52.474;13.326;2022-08-25T20:51:09;28.97;;;15.17;;
44358;SDS011;30077;52.474;13.326;2022-08-25T20:56:12;26.10;;;15.35;;
44358;SDS011;30077;52.474;13.326;2022-08-25T21:01:15;30.38;;;16.60;;
44358;SDS011;30077;52.474;13.326;2022-08-25T21:06:17;29.55;;;16.60;;
44358;SDS011;30077;52.474;13.326;2022-08-25T21:11:18;25.92;;;15.65;;
44358;SDS011;30077;52.474;13.326;2022-08-25T21:16:18;31.63;;;15.40;;
44358;SDS011;30077;52.474;13.326;2022-08-25T21:21:18;20.80;;;15.27;;
44358;SDS011;30077;52.474;13.326;2022-08-25T21:26:20;23.25;;;14.65;;
44358;SDS011;30077;52.474;13.326;2022-08-25T21:31:22;25.85;;;16.42;;
44358;SDS011;30077;52.474;13.326;2022-08-25T21:36:24;27.73;;;15.82;;
44358;SDS011;30077;52.474;13.326;2022-08-25T21:41:27;30.65;;;15.30;;
44358;SDS011;30077;52.474;13.326;2022-08-25T21:46:30;24.40;;;14.82;;
44358;SDS011;30077;52.474;13.326;2022-08-25T21:51:38;27.05;;;14.70;;
44358;SDS011;30077;52.474;13.326;2022-08-25T21:56:42;25.33;;;14.27;;
44358;SDS011;30077;52.474;13.326;2022-08-25T22:01:58;24.63;;;16.08;;
44358;SDS011;30077;52.474;13.326;2022-08-25T22:07:00;23.10;;;14.98;;
44358;SDS011;30077;52.474;13.326;2022-08-25T22:12:01;27.15;;;15.27;;
44358;SDS011;30077;52.474;13.326;2022-08-25T22:17:01;28.10;;;15.52;;
44358;SDS011;30077;52.474;13.326;2022-08-25T22:22:03;23.95;;;15.20;;
44358;SDS011;30077;52.474;13.326;2022-08-25T22:27:05;26.30;;;15.63;;
44358;SDS011;30077;52.474;13.326;2022-08-25T22:32:07;25.00;;;15.18;;
44358;SDS011;30077;52.474;13.326;2022-08-25T22:37:07;25.35;;;15.40;;
44358;SDS011;30077;52.474;13.326;2022-08-25T22:42:07;29.90;;;14.53;;
44358;SDS011;30077;52.474;13.326;2022-08-25T22:47:08;30.95;;;14.68;;
44358;SDS011;30077;52.474;13.326;2022-08-25T22:52:09;29.27;;;14.73;;
44358;SDS011;30077;52.474;13.326;2022-08-25T22:57:10;24.13;;;14.63;;
44358;SDS011;30077;52.474;13.326;2022-08-25T23:02:10;25.60;;;14.68;;
44358;SDS011;30077;52.474;13.326;2022-08-25T23:07:11;22.92;;;14.00;;
44358;SDS011;30077;52.474;13.326;2022-08-25T23:12:11;18.38;;;12.77;;
44358;SDS011;30077;52.474;13.326;2022-08-25T23:17:12;22.40;;;13.48;;
44358;SDS011;30077;52.474;13.326;2022-08-25T23:22:13;24.42;;;13.90;;
44358;SDS011;30077;52.474;13.326;2022-08-25T23:27:15;26.65;;;13.93;;
44358;SDS011;30077;52.474;13.326;2022-08-25T23:32:18;24.95;;;13.68;;
44358;SDS011;30077;52.474;13.326;2022-08-25T23:37:18;23.75;;;13.77;;
44358;SDS011;30077;52.474;13.326;2022-08-25T23:42:18;32.28;;;13.50;;
44358;SDS011;30077;52.474;13.326;2022-08-25T23:47:19;27.40;;;13.65;;
44358;SDS011;30077;52.474;13.326;2022-08-25T23:52:19;26.10;;;13.38;;
44358;SDS011;30077;52.474;13.326;2022-08-25T23:57:19;22.35;;;13.68;;
